Gulf Bridge — A8JM5 — position and weather

sailwx.info

Track history (hours):
 
Tides and Currents Weather Stations Pressure Air Temp Water Temp Dewpoint Dewpoint Depression Visibility Wind Speed Wind Dir Waves Ship Positions

Gulf Bridge

Last reported at 2015-Jul-01 10:21 UTC. Time now 2015-Jul-08 06:30 UTC.
Position N 01°15' E 104°04'.

Length 213 m; beam 32.2 m; draft 11.5 m.

Type: Cargo ship. MMSI: 636091115.

Date/timePositionNaut miles runAvg speedWind from/ knotsBaromVisibWave heightAir tempDewpointWater temp
2015-Jul-01 10:21N 01°15' E 104°04'1113.4
2015-Jul-01 09:32N 01°12' E 103°53'1313.0
2015-Jul-01 08:30N 01°04' E 103°42'1312.8
2015-Jul-01 07:31N 01°08' E 103°30'7414.8
2015-Jul-01 02:32N 01°47' E 102°28'1414.6
2015-Jul-01 01:33N 01°54' E 102°15'1514.9
2015-Jul-01 00:32N 02°04' E 102°04'8 0.3
2015-Jun-29 17:31N 02°11' E 102°00'1515.5
2015-Jun-29 16:33N 02°02' E 102°11'1515.2
2015-Jun-29 15:33N 01°54' E 102°24'1515.1
2015-Jun-29 14:33N 01°47' E 102°38'1414.5
2015-Jun-29 13:33N 01°41' E 102°51'3513.8
2015-Jun-29 11:04N 01°21' E 103°19'1014.7
2015-Jun-29 10:23N 01°14' E 103°27'1214.4
2015-Jun-29 09:33N 01°12' E 103°38'9 9.2
2015-Jun-29 08:34N 01°16' E 103°46'1 0.6
2015-Jun-29 07:32N 01°17' E 103°47'0 0.0
2015-Jun-29 06:32N 01°17' E 103°47'0 0.0
2015-Jun-29 05:29N 01°17' E 103°47'0 0.0
2015-Jun-29 04:29N 01°17' E 103°47'0 0.0
2015-Jun-29 03:32N 01°17' E 103°47'0 0.0
2015-Jun-29 02:29N 01°17' E 103°47'0 0.0
2015-Jun-29 01:32N 01°17' E 103°47'0 0.0
2015-Jun-29 00:32N 01°17' E 103°47'0 0.0
2015-Jun-28 23:29N 01°17' E 103°47'0 0.0
2015-Jun-28 22:23N 01°17' E 103°47'0 0.0
2015-Jun-28 21:33N 01°17' E 103°47'0 0.0
2015-Jun-28 20:33N 01°17' E 103°47'0 0.0
2015-Jun-28 19:33N 01°17' E 103°47'0 0.0
2015-Jun-28 18:33N 01°17' E 103°47'0 0.0
2015-Jun-28 17:33N 01°17' E 103°47'0 0.0
2015-Jun-28 16:33N 01°17' E 103°47'0 0.0
2015-Jun-28 15:33N 01°17' E 103°47'0 0.0
2015-Jun-28 14:33N 01°17' E 103°47'0 0.0
2015-Jun-28 13:34N 01°17' E 103°47'0 0.0
2015-Jun-28 12:34N 01°17' E 103°47'1 0.8
2015-Jun-28 11:33N 01°16' E 103°47'7 7.0
2015-Jun-28 10:33N 01°13' E 103°53'1111.0
2015-Jun-28 09:34N 01°16' E 104°04'1211.8
2015-Jun-28 08:33N 01°18' E 104°15'  
Track history (hours):
 
Tides and Currents Weather Stations Pressure Air Temp Water Temp Dewpoint Dewpoint Depression Visibility Wind Speed Wind Dir Waves Ship Positions

Gulf Bridge

Last reported at 2015-Jul-01 10:21 UTC. Time now 2015-Jul-08 06:30 UTC.
Position N 01°15' E 104°04'.

Length 213 m; beam 32.2 m; draft 11.5 m.

Type: Cargo ship. MMSI: 636091115.

Date/timePositionNaut miles runAvg speedWind from/ knotsBaromVisibWave heightAir tempDewpointWater temp
2015-Jul-01 10:21N 01°15' E 104°04'1113.4
2015-Jul-01 09:32N 01°12' E 103°53'1313.0
2015-Jul-01 08:30N 01°04' E 103°42'1312.8
2015-Jul-01 07:31N 01°08' E 103°30'7414.8
2015-Jul-01 02:32N 01°47' E 102°28'1414.6
2015-Jul-01 01:33N 01°54' E 102°15'1514.9
2015-Jul-01 00:32N 02°04' E 102°04'8 0.3
2015-Jun-29 17:31N 02°11' E 102°00'1515.5
2015-Jun-29 16:33N 02°02' E 102°11'1515.2
2015-Jun-29 15:33N 01°54' E 102°24'1515.1
2015-Jun-29 14:33N 01°47' E 102°38'1414.5
2015-Jun-29 13:33N 01°41' E 102°51'3513.8
2015-Jun-29 11:04N 01°21' E 103°19'1014.7
2015-Jun-29 10:23N 01°14' E 103°27'1214.4
2015-Jun-29 09:33N 01°12' E 103°38'9 9.2
2015-Jun-29 08:34N 01°16' E 103°46'1 0.6
2015-Jun-29 07:32N 01°17' E 103°47'0 0.0
2015-Jun-29 06:32N 01°17' E 103°47'0 0.0
2015-Jun-29 05:29N 01°17' E 103°47'0 0.0
2015-Jun-29 04:29N 01°17' E 103°47'0 0.0
2015-Jun-29 03:32N 01°17' E 103°47'0 0.0
2015-Jun-29 02:29N 01°17' E 103°47'0 0.0
2015-Jun-29 01:32N 01°17' E 103°47'0 0.0
2015-Jun-29 00:32N 01°17' E 103°47'0 0.0
2015-Jun-28 23:29N 01°17' E 103°47'0 0.0
2015-Jun-28 22:23N 01°17' E 103°47'0 0.0
2015-Jun-28 21:33N 01°17' E 103°47'0 0.0
2015-Jun-28 20:33N 01°17' E 103°47'0 0.0
2015-Jun-28 19:33N 01°17' E 103°47'0 0.0
2015-Jun-28 18:33N 01°17' E 103°47'0 0.0
2015-Jun-28 17:33N 01°17' E 103°47'0 0.0
2015-Jun-28 16:33N 01°17' E 103°47'0 0.0
2015-Jun-28 15:33N 01°17' E 103°47'0 0.0
2015-Jun-28 14:33N 01°17' E 103°47'0 0.0
2015-Jun-28 13:34N 01°17' E 103°47'0 0.0
2015-Jun-28 12:34N 01°17' E 103°47'1 0.8
2015-Jun-28 11:33N 01°16' E 103°47'7 7.0
2015-Jun-28 10:33N 01°13' E 103°53'1111.0
2015-Jun-28 09:34N 01°16' E 104°04'1211.8
2015-Jun-28 08:33N 01°18' E 104°15'  

Dump ship's entire track history